createdAt,value
2023-01-08T00:01:52.323Z,99571.63
2023-01-08T00:04:18.772Z,99541.53
2023-01-08T00:06:45.463Z,99623.47
2023-01-08T00:09:12.428Z,99661.19
2023-01-08T00:11:39.033Z,99595.59
2023-01-08T00:14:05.503Z,99586.25
2023-01-08T00:16:32.062Z,99560.81
2023-01-08T00:18:58.576Z,99574.44
2023-01-08T00:21:25.080Z,99536.53
2023-01-08T00:23:51.668Z,99516.16
2023-01-08T00:26:18.187Z,99490.22
2023-01-08T00:28:44.754Z,99468.72
2023-01-08T00:31:13.016Z,99434.88
2023-01-08T00:33:40.640Z,99417.09
2023-01-08T00:36:15.778Z,99405.59
2023-01-08T00:38:43.114Z,99384.13
2023-01-08T00:41:09.881Z,99390.91
2023-01-08T00:43:36.390Z,99345.44
2023-01-08T00:46:03.504Z,99355.28
2023-01-08T00:48:30.081Z,99359.91
2023-01-08T00:50:56.736Z,99349.16
2023-01-08T00:53:23.507Z,99358.13
2023-01-08T00:55:50.203Z,99356.59
2023-01-08T00:58:16.927Z,99349.47
2023-01-08T01:00:43.400Z,99345.78
2023-01-08T01:03:09.821Z,99240.69
2023-01-08T01:05:36.266Z,99306.00
2023-01-08T01:08:02.732Z,99208.53
2023-01-08T01:10:29.255Z,99274.34
2023-01-08T01:12:55.876Z,99249.84
2023-01-08T01:15:22.438Z,99229.41
2023-01-08T01:17:48.963Z,99221.03
2023-01-08T01:20:17.016Z,99202.06
2023-01-08T01:22:43.969Z,99183.31
2023-01-08T01:25:10.845Z,99173.72
2023-01-08T01:27:37.390Z,99174.97
2023-01-08T01:30:04.900Z,99166.13
2023-01-08T01:32:31.430Z,99145.72
2023-01-08T01:34:57.995Z,99029.63
2023-01-08T01:37:24.636Z,99095.78
2023-01-08T01:39:51.059Z,99067.28
2023-01-08T01:42:20.048Z,99070.09
2023-01-08T01:44:46.845Z,99061.53
2023-01-08T01:47:28.055Z,98990.75
2023-01-08T01:50:08.397Z,99021.53
2023-01-08T01:52:40.691Z,98977.34
2023-01-08T01:55:09.971Z,98887.47
2023-01-08T01:57:38.136Z,98854.00
2023-01-08T02:00:07.094Z,98925.06
2023-01-08T02:02:34.886Z,98909.09
2023-01-08T02:05:02.256Z,98889.25
2023-01-08T02:07:43.449Z,98868.66
2023-01-08T02:10:16.703Z,98861.97
2023-01-08T02:12:52.062Z,98836.22
2023-01-08T02:15:26.789Z,98806.47
2023-01-08T02:18:10.740Z,98715.44
2023-01-08T02:20:45.133Z,98739.91
2023-01-08T02:23:39.855Z,98660.25
2023-01-08T02:26:15.316Z,98682.28
2023-01-08T02:28:53.980Z,98645.88
2023-01-08T02:31:22.891Z,98672.91
2023-01-08T02:33:49.721Z,98610.63
2023-01-08T02:36:34.648Z,98651.16
2023-01-08T02:39:19.646Z,98681.25
2023-01-08T02:42:11.901Z,98716.06
2023-01-08T02:44:45.543Z,98759.06
2023-01-08T02:47:22.047Z,98787.72
2023-01-08T02:49:55.108Z,98759.59
2023-01-08T02:52:23.363Z,98828.25
2023-01-08T02:54:50.719Z,98873.19
2023-01-08T02:57:19.607Z,98868.38
2023-01-08T02:59:49.476Z,98945.72
2023-01-08T03:02:17.421Z,98953.44
2023-01-08T03:04:54.440Z,98896.66
2023-01-08T03:07:21.651Z,98960.25
2023-01-08T03:09:48.373Z,98945.50
2023-01-08T03:12:24.594Z,99008.44
2023-01-08T03:14:58.056Z,99036.13
2023-01-08T03:17:32.701Z,98993.28
2023-01-08T03:20:08.802Z,99064.34
2023-01-08T03:22:39.578Z,99083.66
2023-01-08T03:25:07.756Z,99076.91
2023-01-08T03:27:45.410Z,99095.66
2023-01-08T03:30:13.755Z,99099.84
2023-01-08T03:32:43.245Z,99099.50
2023-01-08T03:35:13.645Z,99118.81
2023-01-08T03:37:45.523Z,99129.56
2023-01-08T03:40:20.422Z,99120.28
2023-01-08T03:42:47.001Z,99122.56
2023-01-08T03:45:13.657Z,99111.03
2023-01-08T03:47:41.727Z,99123.00
2023-01-08T03:50:14.431Z,99117.47
2023-01-08T03:52:40.928Z,99090.25
2023-01-08T03:55:07.872Z,99062.03
2023-01-08T03:57:34.311Z,99094.31
2023-01-08T04:00:00.738Z,99074.31
2023-01-08T04:02:27.349Z,99084.72
2023-01-08T04:04:53.919Z,99071.59
2023-01-08T04:07:20.568Z,99091.38
2023-01-08T04:09:46.992Z,99099.03
2023-01-08T04:12:13.591Z,99103.66
2023-01-08T04:14:40.062Z,99111.69
2023-01-08T04:17:06.535Z,99121.63
2023-01-08T04:19:33.012Z,99110.47
2023-01-08T04:21:59.440Z,99103.78
2023-01-08T04:24:25.904Z,99109.00
2023-01-08T04:26:52.307Z,99103.78
2023-01-08T04:29:18.745Z,99053.44
2023-01-08T04:31:45.218Z,99101.19
2023-01-08T04:34:11.727Z,99092.63
2023-01-08T04:36:38.225Z,99078.16
2023-01-08T04:39:05.338Z,99102.19
2023-01-08T04:41:31.942Z,99100.63
2023-01-08T04:43:58.426Z,99055.59
2023-01-08T04:46:25.016Z,99097.13
2023-01-08T04:48:51.549Z,99062.94
2023-01-08T04:51:18.062Z,99096.69
2023-01-08T04:53:44.627Z,99094.09
2023-01-08T04:56:11.385Z,99086.09
2023-01-08T04:58:38.697Z,99069.25
2023-01-08T05:01:20.289Z,99070.94
2023-01-08T05:03:46.996Z,99078.50
2023-01-08T05:06:13.878Z,99034.81
2023-01-08T05:08:40.297Z,99021.75
2023-01-08T05:11:06.721Z,99078.97
2023-01-08T05:13:33.464Z,99081.00
2023-01-08T05:16:00.993Z,99075.69
2023-01-08T05:18:28.902Z,99048.81
2023-01-08T05:20:55.540Z,99061.66
2023-01-08T05:23:22.055Z,99131.09
2023-01-08T05:25:48.525Z,99130.53
2023-01-08T05:28:14.979Z,99100.25
2023-01-08T05:30:41.579Z,99115.78
2023-01-08T05:33:08.124Z,99126.84
2023-01-08T05:35:34.672Z,99153.31
2023-01-08T05:38:01.208Z,99094.97
2023-01-08T05:40:27.668Z,99131.38
2023-01-08T05:42:54.191Z,99150.97
2023-01-08T05:45:20.586Z,99146.78
2023-01-08T05:47:47.134Z,99112.47
2023-01-08T05:50:13.645Z,99166.34
2023-01-08T05:52:40.184Z,99199.97
2023-01-08T05:55:07.022Z,99196.22
2023-01-08T05:57:33.560Z,99198.81
2023-01-08T06:00:00.283Z,99199.91
2023-01-08T06:02:26.753Z,99219.78
2023-01-08T06:04:53.296Z,99233.84
2023-01-08T06:07:19.795Z,99240.72
2023-01-08T06:09:46.299Z,99256.69
2023-01-08T06:12:12.739Z,99230.88
2023-01-08T06:14:39.207Z,99262.53
2023-01-08T06:17:05.809Z,99228.38
2023-01-08T06:19:32.281Z,99273.91
2023-01-08T06:21:58.793Z,99221.66
2023-01-08T06:24:25.319Z,99223.94
2023-01-08T06:26:51.768Z,99229.75
2023-01-08T06:29:18.208Z,99242.38
2023-01-08T06:31:44.756Z,99237.59
2023-01-08T06:34:11.573Z,99221.16
2023-01-08T06:36:38.080Z,99248.19
2023-01-08T06:39:08.554Z,99204.06
2023-01-08T06:41:35.128Z,99256.19
2023-01-08T06:44:01.627Z,99256.50
2023-01-08T06:46:28.074Z,99290.44
2023-01-08T06:48:54.541Z,99234.53
2023-01-08T06:51:21.041Z,99294.19
2023-01-08T06:53:48.440Z,99274.78
2023-01-08T06:56:14.917Z,99244.63
2023-01-08T06:58:41.347Z,99309.38
2023-01-08T07:01:13.925Z,99247.66
2023-01-08T07:03:40.543Z,99290.66
2023-01-08T07:06:07.523Z,99290.34
2023-01-08T07:08:34.058Z,99290.06
2023-01-08T07:11:03.878Z,99288.97
2023-01-08T07:13:30.305Z,99283.22
2023-01-08T07:15:56.808Z,99274.63
2023-01-08T07:18:23.317Z,99277.50
2023-01-08T07:20:49.786Z,99274.53
2023-01-08T07:23:16.374Z,99259.91
2023-01-08T07:25:42.819Z,99250.19
2023-01-08T07:28:12.402Z,99249.00
2023-01-08T07:30:38.937Z,99225.00
2023-01-08T07:33:05.421Z,99238.66
2023-01-08T07:35:31.881Z,99230.03
2023-01-08T07:37:58.503Z,99230.63
2023-01-08T07:40:25.072Z,99236.38
2023-01-08T07:43:02.684Z,99182.28
2023-01-08T07:45:30.116Z,99222.69
2023-01-08T07:47:57.821Z,99238.06
2023-01-08T07:50:24.531Z,99177.13
2023-01-08T07:52:51.022Z,99215.16
2023-01-08T07:55:17.511Z,99152.41
2023-01-08T07:57:43.944Z,99209.72
2023-01-08T08:00:11.266Z,99210.22
2023-01-08T08:02:37.859Z,99153.81
2023-01-08T08:05:04.769Z,99208.28
2023-01-08T08:07:31.838Z,99152.50
2023-01-08T08:09:58.566Z,99207.47
2023-01-08T08:12:25.175Z,99203.94
2023-01-08T08:14:51.985Z,99206.16
2023-01-08T08:17:18.538Z,99198.06
2023-01-08T08:19:45.029Z,99183.66
2023-01-08T08:22:13.100Z,99191.28
2023-01-08T08:24:39.784Z,99190.41
2023-01-08T08:27:06.397Z,99178.34
2023-01-08T08:29:32.947Z,99163.78
2023-01-08T08:31:59.424Z,99121.78
2023-01-08T08:34:25.947Z,99163.19
2023-01-08T08:36:52.415Z,99168.53
2023-01-08T08:39:18.902Z,99124.75
2023-01-08T08:41:45.336Z,99141.16
2023-01-08T08:44:11.824Z,99112.41
2023-01-08T08:46:38.346Z,99134.31
2023-01-08T08:49:04.803Z,99143.53
2023-01-08T08:51:31.322Z,99151.00
2023-01-08T08:53:57.770Z,99126.47
2023-01-08T08:56:24.287Z,99136.78
2023-01-08T08:58:50.764Z,99139.63
2023-01-08T09:01:17.359Z,99128.94
2023-01-08T09:03:44.026Z,99127.09
2023-01-08T09:06:14.781Z,99102.44
2023-01-08T09:08:41.340Z,99121.09
2023-01-08T09:11:07.868Z,99069.28
2023-01-08T09:13:36.202Z,99116.69
2023-01-08T09:16:02.745Z,99111.03
2023-01-08T09:18:29.397Z,99102.03
2023-01-08T09:20:55.829Z,99106.81
2023-01-08T09:23:22.339Z,99086.53
2023-01-08T09:25:48.801Z,99100.75
2023-01-08T09:28:15.276Z,99105.22
2023-01-08T09:30:41.708Z,99062.63
2023-01-08T09:33:09.357Z,99103.44
2023-01-08T09:35:35.814Z,99107.94
2023-01-08T09:38:02.301Z,99116.06
2023-01-08T09:40:36.540Z,99108.97
2023-01-08T09:43:04.679Z,99120.47
2023-01-08T09:45:33.775Z,99095.22
2023-01-08T09:48:05.730Z,99118.69
2023-01-08T09:50:33.947Z,99096.78
2023-01-08T09:53:00.982Z,99112.94
2023-01-08T09:55:31.395Z,99115.00
2023-01-08T09:58:02.934Z,99106.97
2023-01-08T10:00:33.887Z,99119.50
2023-01-08T10:03:00.660Z,99129.56
2023-01-08T10:05:27.748Z,99089.97
2023-01-08T10:07:54.311Z,99107.63
2023-01-08T10:10:26.933Z,99198.13
2023-01-08T10:12:54.461Z,99255.41
2023-01-08T10:15:23.152Z,99294.78
2023-01-08T10:18:03.789Z,99349.91
2023-01-08T10:20:31.138Z,99424.88
2023-01-08T10:23:09.606Z,99496.31
2023-01-08T10:25:56.922Z,99542.91
2023-01-08T10:28:34.606Z,99503.16
2023-01-08T10:31:15.616Z,99546.47
2023-01-08T10:33:44.876Z,99529.38
2023-01-08T10:36:23.407Z,99485.75
2023-01-08T10:38:59.729Z,99472.28
2023-01-08T10:41:27.411Z,99464.81
2023-01-08T10:43:59.939Z,99468.34
2023-01-08T10:46:32.667Z,99436.41
2023-01-08T10:49:01.204Z,99395.22
2023-01-08T10:51:30.757Z,99407.53
2023-01-08T10:54:12.889Z,99431.75
2023-01-08T10:56:45.498Z,99365.03
2023-01-08T10:59:21.841Z,99420.53
2023-01-08T11:01:50.095Z,99430.84
2023-01-08T11:04:26.550Z,99438.78
2023-01-08T11:06:53.641Z,99464.50
2023-01-08T11:09:24.029Z,99465.16
2023-01-08T11:11:50.819Z,99464.59
2023-01-08T11:14:25.070Z,99494.81
2023-01-08T11:16:51.601Z,99468.75
2023-01-08T11:19:24.299Z,99481.22
2023-01-08T11:22:06.351Z,99478.19
2023-01-08T11:24:36.067Z,99513.16
2023-01-08T11:27:34.637Z,99490.28
2023-01-08T11:30:07.302Z,99515.78
2023-01-08T11:32:49.172Z,99506.59
2023-01-08T11:35:20.737Z,99556.09
2023-01-08T11:37:56.672Z,99561.41
2023-01-08T11:40:30.246Z,99577.38
2023-01-08T11:43:25.343Z,99598.47
2023-01-08T11:45:55.712Z,99599.94
2023-01-08T11:48:34.920Z,99594.50
2023-01-08T11:51:04.394Z,99585.06
2023-01-08T11:53:33.873Z,99521.31
2023-01-08T11:56:39.717Z,99565.28
2023-01-08T11:59:21.711Z,99573.06
2023-01-08T12:01:53.558Z,99584.97
2023-01-08T12:04:41.149Z,99602.09
2023-01-08T12:07:41.227Z,99623.84
2023-01-08T12:10:10.563Z,99639.03
2023-01-08T12:12:57.456Z,99664.38
2023-01-08T12:15:50.497Z,99692.97
2023-01-08T12:18:32.623Z,99718.81
2023-01-08T12:21:43.454Z,99719.06
2023-01-08T12:24:41.935Z,99716.34
2023-01-08T12:27:55.860Z,99715.56
2023-01-08T12:30:53.415Z,99713.28
2023-01-08T12:33:34.578Z,99736.97
2023-01-08T12:36:06.910Z,99746.22
2023-01-08T12:38:41.871Z,99743.44
2023-01-08T12:41:13.451Z,99718.28
2023-01-08T12:44:07.353Z,99695.16
2023-01-08T12:46:36.211Z,99692.19
2023-01-08T12:49:06.091Z,99661.91
2023-01-08T12:51:49.673Z,99673.66
2023-01-08T12:54:45.157Z,99691.28
2023-01-08T12:57:17.388Z,99661.81
2023-01-08T13:00:17.233Z,99619.97
2023-01-08T13:02:59.853Z,99594.28
2023-01-08T13:05:26.351Z,99642.06
2023-01-08T13:07:56.284Z,99630.97
2023-01-08T13:10:34.470Z,99633.56
2023-01-08T13:13:03.163Z,99569.88
2023-01-08T13:15:31.382Z,99620.00
2023-01-08T13:18:05.602Z,99603.34
2023-01-08T13:20:32.924Z,99646.94
2023-01-08T13:23:02.854Z,99653.50
2023-01-08T13:25:32.977Z,99682.88
2023-01-08T13:28:00.132Z,99664.66
2023-01-08T13:30:44.656Z,99626.72
2023-01-08T13:33:28.024Z,99612.94
2023-01-08T13:36:12.737Z,99627.56
2023-01-08T13:38:40.710Z,99635.81
2023-01-08T13:41:24.454Z,99599.78
2023-01-08T13:44:00.560Z,99603.22
2023-01-08T13:46:27.842Z,99592.63
2023-01-08T13:49:02.366Z,99556.66
2023-01-08T13:51:38.056Z,99558.78
2023-01-08T13:54:37.268Z,99538.19
2023-01-08T13:57:24.219Z,99533.53
2023-01-08T13:59:58.913Z,99514.75
2023-01-08T14:02:32.281Z,99451.81
2023-01-08T14:05:01.297Z,99499.94
2023-01-08T14:07:28.028Z,99524.38
2023-01-08T14:09:54.782Z,99546.56
2023-01-08T14:12:24.217Z,99558.00
2023-01-08T14:14:58.944Z,99527.44
2023-01-08T14:17:32.580Z,99551.56
2023-01-08T14:19:59.583Z,99570.03
2023-01-08T14:22:33.622Z,99598.13
2023-01-08T14:25:06.540Z,99604.00
2023-01-08T14:27:34.531Z,99588.47
2023-01-08T14:30:01.425Z,99604.13
2023-01-08T14:32:30.618Z,99606.38
2023-01-08T14:34:59.472Z,99588.03
2023-01-08T14:37:26.042Z,99552.78
2023-01-08T14:39:54.485Z,99584.97
2023-01-08T14:42:37.013Z,99616.38
2023-01-08T14:45:07.962Z,99554.63
2023-01-08T14:47:43.005Z,99564.53
2023-01-08T14:50:24.961Z,99542.56
2023-01-08T14:52:53.428Z,99521.75
2023-01-08T14:55:21.314Z,99475.66
2023-01-08T14:57:51.974Z,99434.66
2023-01-08T15:00:22.539Z,99432.63
2023-01-08T15:02:49.727Z,99469.34
2023-01-08T15:05:29.596Z,99471.97
2023-01-08T15:08:16.394Z,99498.00
2023-01-08T15:10:43.051Z,99505.22
2023-01-08T15:13:23.171Z,99471.59
2023-01-08T15:15:56.893Z,99447.25
2023-01-08T15:18:23.641Z,99433.25
2023-01-08T15:20:51.209Z,99417.41
2023-01-08T15:23:28.408Z,99405.28
2023-01-08T15:25:56.233Z,99368.84
2023-01-08T15:28:23.021Z,99385.38
2023-01-08T15:30:50.207Z,99379.84
2023-01-08T15:33:21.162Z,99366.44
2023-01-08T15:35:48.740Z,99356.63
2023-01-08T15:38:16.466Z,99343.28
2023-01-08T15:40:43.848Z,99325.84
2023-01-08T15:43:15.198Z,99307.06
2023-01-08T15:45:44.154Z,99285.59
2023-01-08T15:48:11.427Z,99317.72
2023-01-08T15:50:40.130Z,99317.38
2023-01-08T15:53:12.755Z,99318.38
2023-01-08T15:55:39.790Z,99322.13
2023-01-08T15:58:06.369Z,99327.81
2023-01-08T16:00:32.905Z,99353.13
2023-01-08T16:02:59.433Z,99341.00
2023-01-08T16:05:29.140Z,99358.59
2023-01-08T16:07:55.616Z,99362.06
2023-01-08T16:10:22.429Z,99345.34
2023-01-08T16:12:48.878Z,99318.75
2023-01-08T16:15:16.103Z,99318.84
2023-01-08T16:17:43.649Z,99357.44
2023-01-08T16:20:11.386Z,99357.00
2023-01-08T16:22:37.959Z,99368.31
2023-01-08T16:25:04.903Z,99345.69
2023-01-08T16:27:32.473Z,99350.75
2023-01-08T16:29:59.420Z,99329.06
2023-01-08T16:32:25.993Z,99324.44
2023-01-08T16:34:52.466Z,99312.09
2023-01-08T16:37:19.142Z,99317.41
2023-01-08T16:39:45.693Z,99286.84
2023-01-08T16:42:12.222Z,99293.41
2023-01-08T16:44:39.069Z,99334.84
2023-01-08T16:47:05.586Z,99280.97
2023-01-08T16:49:32.114Z,99290.13
2023-01-08T16:51:58.704Z,99335.97
2023-01-08T16:54:25.284Z,99324.75
2023-01-08T16:56:52.256Z,99314.91
2023-01-08T16:59:23.716Z,99298.75
2023-01-08T17:01:51.558Z,99305.41
2023-01-08T17:04:18.128Z,99304.19
2023-01-08T17:06:44.769Z,99287.75
2023-01-08T17:09:11.885Z,99287.75
2023-01-08T17:11:38.975Z,99273.19
2023-01-08T17:14:05.538Z,99274.09
2023-01-08T17:16:32.102Z,99285.06
2023-01-08T17:18:58.720Z,99276.91
2023-01-08T17:21:25.289Z,99267.41
2023-01-08T17:23:51.805Z,99264.81
2023-01-08T17:26:18.337Z,99255.16
2023-01-08T17:28:45.037Z,99270.59
2023-01-08T17:31:14.232Z,99263.34
2023-01-08T17:33:41.196Z,99242.75
2023-01-08T17:36:16.208Z,99245.13
2023-01-08T17:38:43.083Z,99181.50
2023-01-08T17:41:09.927Z,99222.06
2023-01-08T17:43:37.833Z,99195.72
2023-01-08T17:46:08.254Z,99201.25
2023-01-08T17:48:34.942Z,99201.59
2023-01-08T17:51:07.400Z,99187.47
2023-01-08T17:53:35.874Z,99088.56
2023-01-08T17:56:02.321Z,99137.88
2023-01-08T17:58:28.776Z,99167.66
2023-01-08T18:00:55.302Z,99121.06
2023-01-08T18:03:21.888Z,99151.97
2023-01-08T18:05:48.379Z,99089.19
2023-01-08T18:08:14.897Z,99082.88
2023-01-08T18:10:41.443Z,99121.34
2023-01-08T18:13:08.108Z,99114.09
2023-01-08T18:15:34.730Z,99122.25
2023-01-08T18:18:01.594Z,99108.69
2023-01-08T18:20:28.852Z,99103.72
2023-01-08T18:22:55.595Z,99095.91
2023-01-08T18:25:22.110Z,99106.78
2023-01-08T18:27:48.631Z,99047.97
2023-01-08T18:30:15.438Z,99101.22
2023-01-08T18:32:41.943Z,99101.31
2023-01-08T18:35:08.980Z,99089.97
2023-01-08T18:37:35.473Z,99084.91
2023-01-08T18:40:02.282Z,99064.19
2023-01-08T18:42:28.685Z,99042.16
2023-01-08T18:44:56.421Z,99017.88
2023-01-08T18:47:25.437Z,98990.81
2023-01-08T18:49:53.743Z,98918.53
2023-01-08T18:52:20.415Z,98967.41
2023-01-08T18:54:46.943Z,98952.31
2023-01-08T18:57:13.487Z,98916.91
2023-01-08T18:59:40.239Z,98936.38
2023-01-08T19:02:07.699Z,98920.06
2023-01-08T19:04:34.251Z,98919.03
2023-01-08T19:07:00.764Z,98920.22
2023-01-08T19:09:27.199Z,98911.63
2023-01-08T19:11:53.726Z,98907.59
2023-01-08T19:14:20.257Z,98903.44
2023-01-08T19:16:46.813Z,98897.53
2023-01-08T19:19:13.340Z,98901.94
2023-01-08T19:21:39.965Z,98889.56
2023-01-08T19:24:06.937Z,98847.66
2023-01-08T19:26:33.508Z,98881.38
2023-01-08T19:28:59.947Z,98888.56
2023-01-08T19:31:26.562Z,98892.31
2023-01-08T19:33:53.135Z,98878.56
2023-01-08T19:36:19.630Z,98834.66
2023-01-08T19:38:46.131Z,98818.19
2023-01-08T19:41:13.273Z,98858.69
2023-01-08T19:43:39.752Z,98856.16
2023-01-08T19:46:06.953Z,98794.97
2023-01-08T19:48:34.531Z,98788.97
2023-01-08T19:51:06.876Z,98809.13
2023-01-08T19:53:33.429Z,98812.91
2023-01-08T19:56:08.144Z,98791.66
2023-01-08T19:58:35.013Z,98795.13
2023-01-08T20:01:01.697Z,98743.38
2023-01-08T20:03:28.214Z,98786.34
2023-01-08T20:05:54.663Z,98789.06
2023-01-08T20:08:21.232Z,98771.41
2023-01-08T20:10:47.755Z,98763.06
2023-01-08T20:13:14.232Z,98759.28
2023-01-08T20:15:40.854Z,98755.03
2023-01-08T20:18:07.417Z,98729.16
2023-01-08T20:20:33.943Z,98754.25
2023-01-08T20:23:00.540Z,98745.13
2023-01-08T20:25:26.998Z,98737.22
2023-01-08T20:27:53.515Z,98744.00
2023-01-08T20:30:20.061Z,98706.22
2023-01-08T20:32:46.503Z,98716.53
2023-01-08T20:35:13.133Z,98707.09
2023-01-08T20:37:39.740Z,98664.03
2023-01-08T20:40:06.827Z,98671.69
2023-01-08T20:42:34.493Z,98707.09
2023-01-08T20:45:01.429Z,98674.03
2023-01-08T20:47:27.913Z,98704.28
2023-01-08T20:49:54.455Z,98708.13
2023-01-08T20:52:21.012Z,98678.84
2023-01-08T20:54:47.463Z,98686.41
2023-01-08T20:57:13.961Z,98660.53
2023-01-08T20:59:40.431Z,98683.63
2023-01-08T21:02:06.995Z,98680.81
2023-01-08T21:04:33.890Z,98687.59
2023-01-08T21:07:00.423Z,98658.31
2023-01-08T21:09:26.907Z,98665.16
2023-01-08T21:11:53.396Z,98665.59
2023-01-08T21:14:19.887Z,98638.38
2023-01-08T21:16:46.436Z,98609.53
2023-01-08T21:19:13.000Z,98602.00
2023-01-08T21:21:40.669Z,98616.94
2023-01-08T21:24:09.277Z,98598.44
2023-01-08T21:26:36.519Z,98600.06
2023-01-08T21:29:03.415Z,98561.00
2023-01-08T21:31:30.294Z,98579.94
2023-01-08T21:33:58.199Z,98545.34
2023-01-08T21:36:27.324Z,98498.69
2023-01-08T21:38:56.730Z,98540.34
2023-01-08T21:41:24.838Z,98569.50
2023-01-08T21:43:51.308Z,98535.84
2023-01-08T21:46:18.154Z,98546.16
2023-01-08T21:48:45.576Z,98535.22
2023-01-08T21:51:12.050Z,98526.50
2023-01-08T21:53:38.484Z,98541.03
2023-01-08T21:56:05.345Z,98511.59
2023-01-08T21:58:31.905Z,98503.69
2023-01-08T22:00:58.428Z,98484.44
2023-01-08T22:03:25.324Z,98496.09
2023-01-08T22:05:59.707Z,98423.56
2023-01-08T22:08:26.292Z,98475.97
2023-01-08T22:10:52.780Z,98411.00
2023-01-08T22:13:19.269Z,98401.06
2023-01-08T22:15:46.032Z,98449.47
2023-01-08T22:18:12.596Z,98443.97
2023-01-08T22:20:39.183Z,98430.63
2023-01-08T22:23:05.721Z,98381.81
2023-01-08T22:25:32.215Z,98408.91
2023-01-08T22:27:58.739Z,98408.41
2023-01-08T22:30:25.167Z,98393.78
2023-01-08T22:32:51.699Z,98369.47
2023-01-08T22:35:18.176Z,98373.94
2023-01-08T22:37:44.702Z,98366.38
2023-01-08T22:40:11.396Z,98298.06
2023-01-08T22:42:37.855Z,98311.88
2023-01-08T22:45:04.734Z,98373.06
2023-01-08T22:47:31.218Z,98340.72
2023-01-08T22:49:57.708Z,98310.56
2023-01-08T22:52:24.151Z,98296.97
2023-01-08T22:54:50.695Z,98349.38
2023-01-08T22:57:17.177Z,98356.97
2023-01-08T22:59:43.649Z,98345.59
2023-01-08T23:02:10.312Z,98360.66
2023-01-08T23:04:36.822Z,98302.13
2023-01-08T23:07:03.296Z,98368.81
2023-01-08T23:09:30.026Z,98367.88
2023-01-08T23:11:56.453Z,98363.72
2023-01-08T23:14:23.089Z,98383.50
2023-01-08T23:16:49.546Z,98363.09
2023-01-08T23:19:16.037Z,98384.22
2023-01-08T23:21:42.591Z,98384.00
2023-01-08T23:24:12.820Z,98388.28
2023-01-08T23:26:39.411Z,98406.28
2023-01-08T23:29:05.891Z,98398.88
2023-01-08T23:31:32.458Z,98399.69
2023-01-08T23:33:59.022Z,98401.19
2023-01-08T23:36:25.474Z,98420.31
2023-01-08T23:38:54.399Z,98227.81
2023-01-08T23:41:23.158Z,98382.34
2023-01-08T23:43:49.715Z,98405.84
2023-01-08T23:46:16.605Z,98395.84
2023-01-08T23:48:43.540Z,98401.03
2023-01-08T23:51:10.051Z,98396.63
2023-01-08T23:53:36.511Z,98368.44
2023-01-08T23:56:03.038Z,98373.88
2023-01-08T23:58:29.632Z,98367.38
